sensor_id;sensor_type;location;lat;lon;timestamp;P1;durP1;ratioP1;P2;durP2;ratioP2
26690;SDS011;14307;51.718;8.938;2024-01-07T00:00:55;125.72;;;39.90;;
26690;SDS011;14307;51.718;8.938;2024-01-07T00:03:22;104.05;;;34.38;;
26690;SDS011;14307;51.718;8.938;2024-01-07T00:05:49;129.25;;;42.83;;
26690;SDS011;14307;51.718;8.938;2024-01-07T00:08:15;121.10;;;39.90;;
26690;SDS011;14307;51.718;8.938;2024-01-07T00:10:42;129.32;;;41.30;;
26690;SDS011;14307;51.718;8.938;2024-01-07T00:13:09;135.68;;;43.53;;
26690;SDS011;14307;51.718;8.938;2024-01-07T00:15:36;110.90;;;34.55;;
26690;SDS011;14307;51.718;8.938;2024-01-07T00:18:03;118.35;;;40.92;;
26690;SDS011;14307;51.718;8.938;2024-01-07T00:20:30;133.48;;;42.67;;
26690;SDS011;14307;51.718;8.938;2024-01-07T00:22:56;123.15;;;41.00;;
26690;SDS011;14307;51.718;8.938;2024-01-07T00:25:23;138.38;;;42.42;;
26690;SDS011;14307;51.718;8.938;2024-01-07T00:27:50;119.53;;;39.28;;
26690;SDS011;14307;51.718;8.938;2024-01-07T00:30:18;144.82;;;46.45;;
26690;SDS011;14307;51.718;8.938;2024-01-07T00:32:45;111.85;;;36.63;;
26690;SDS011;14307;51.718;8.938;2024-01-07T00:35:12;127.75;;;42.38;;
26690;SDS011;14307;51.718;8.938;2024-01-07T00:37:39;125.53;;;41.40;;
26690;SDS011;14307;51.718;8.938;2024-01-07T00:40:06;94.82;;;33.80;;
26690;SDS011;14307;51.718;8.938;2024-01-07T00:42:33;76.68;;;30.73;;
26690;SDS011;14307;51.718;8.938;2024-01-07T00:45:00;114.40;;;44.80;;
26690;SDS011;14307;51.718;8.938;2024-01-07T00:47:27;109.38;;;43.50;;
26690;SDS011;14307;51.718;8.938;2024-01-07T00:49:53;108.57;;;41.45;;
26690;SDS011;14307;51.718;8.938;2024-01-07T00:52:21;111.20;;;42.42;;
26690;SDS011;14307;51.718;8.938;2024-01-07T00:54:49;115.03;;;43.90;;
26690;SDS011;14307;51.718;8.938;2024-01-07T00:57:16;88.03;;;33.15;;
26690;SDS011;14307;51.718;8.938;2024-01-07T00:59:42;88.55;;;38.50;;
26690;SDS011;14307;51.718;8.938;2024-01-07T01:02:09;98.28;;;40.22;;
26690;SDS011;14307;51.718;8.938;2024-01-07T01:04:38;108.90;;;46.17;;
26690;SDS011;14307;51.718;8.938;2024-01-07T01:07:06;101.75;;;43.60;;
26690;SDS011;14307;51.718;8.938;2024-01-07T01:09:34;101.70;;;43.33;;
26690;SDS011;14307;51.718;8.938;2024-01-07T01:12:00;101.00;;;42.60;;
26690;SDS011;14307;51.718;8.938;2024-01-07T01:14:27;79.40;;;37.08;;
26690;SDS011;14307;51.718;8.938;2024-01-07T01:16:54;85.63;;;36.05;;
26690;SDS011;14307;51.718;8.938;2024-01-07T01:19:21;59.05;;;26.73;;
26690;SDS011;14307;51.718;8.938;2024-01-07T01:21:48;86.07;;;37.60;;
26690;SDS011;14307;51.718;8.938;2024-01-07T01:24:15;70.38;;;33.28;;
26690;SDS011;14307;51.718;8.938;2024-01-07T01:26:42;86.78;;;38.92;;
26690;SDS011;14307;51.718;8.938;2024-01-07T01:29:08;80.15;;;35.40;;
26690;SDS011;14307;51.718;8.938;2024-01-07T01:31:35;67.68;;;30.50;;
26690;SDS011;14307;51.718;8.938;2024-01-07T01:34:03;70.57;;;33.38;;
26690;SDS011;14307;51.718;8.938;2024-01-07T01:36:31;53.55;;;27.80;;
26690;SDS011;14307;51.718;8.938;2024-01-07T01:38:58;58.70;;;30.60;;
26690;SDS011;14307;51.718;8.938;2024-01-07T01:41:25;71.38;;;31.48;;
26690;SDS011;14307;51.718;8.938;2024-01-07T01:43:51;61.63;;;31.08;;
26690;SDS011;14307;51.718;8.938;2024-01-07T01:46:24;55.58;;;24.88;;
26690;SDS011;14307;51.718;8.938;2024-01-07T01:48:51;62.58;;;30.58;;
26690;SDS011;14307;51.718;8.938;2024-01-07T01:51:18;58.00;;;30.80;;
26690;SDS011;14307;51.718;8.938;2024-01-07T01:53:45;65.45;;;33.65;;
26690;SDS011;14307;51.718;8.938;2024-01-07T01:56:14;60.05;;;33.45;;
26690;SDS011;14307;51.718;8.938;2024-01-07T01:58:44;58.08;;;31.27;;
26690;SDS011;14307;51.718;8.938;2024-01-07T02:01:11;40.88;;;23.30;;
26690;SDS011;14307;51.718;8.938;2024-01-07T02:03:39;58.25;;;31.60;;
26690;SDS011;14307;51.718;8.938;2024-01-07T02:06:06;59.75;;;27.35;;
26690;SDS011;14307;51.718;8.938;2024-01-07T02:08:33;59.75;;;30.98;;
26690;SDS011;14307;51.718;8.938;2024-01-07T02:11:13;61.22;;;28.50;;
26690;SDS011;14307;51.718;8.938;2024-01-07T02:13:44;64.18;;;31.92;;
26690;SDS011;14307;51.718;8.938;2024-01-07T02:16:11;69.75;;;33.78;;
26690;SDS011;14307;51.718;8.938;2024-01-07T02:18:40;59.58;;;29.17;;
26690;SDS011;14307;51.718;8.938;2024-01-07T02:21:08;60.63;;;32.33;;
26690;SDS011;14307;51.718;8.938;2024-01-07T02:23:36;74.97;;;35.58;;
26690;SDS011;14307;51.718;8.938;2024-01-07T02:26:03;79.53;;;36.47;;
26690;SDS011;14307;51.718;8.938;2024-01-07T02:28:31;64.13;;;32.60;;
26690;SDS011;14307;51.718;8.938;2024-01-07T02:30:58;75.60;;;35.65;;
26690;SDS011;14307;51.718;8.938;2024-01-07T02:33:26;68.00;;;33.35;;
26690;SDS011;14307;51.718;8.938;2024-01-07T02:35:53;63.08;;;32.22;;
26690;SDS011;14307;51.718;8.938;2024-01-07T02:38:20;61.22;;;30.83;;
26690;SDS011;14307;51.718;8.938;2024-01-07T02:40:48;66.45;;;32.25;;
26690;SDS011;14307;51.718;8.938;2024-01-07T02:43:14;71.82;;;33.25;;
26690;SDS011;14307;51.718;8.938;2024-01-07T02:45:42;51.22;;;25.13;;
26690;SDS011;14307;51.718;8.938;2024-01-07T02:48:09;51.45;;;28.60;;
26690;SDS011;14307;51.718;8.938;2024-01-07T02:50:36;52.13;;;27.35;;
26690;SDS011;14307;51.718;8.938;2024-01-07T02:53:02;49.47;;;24.92;;
26690;SDS011;14307;51.718;8.938;2024-01-07T02:55:29;50.28;;;26.23;;
26690;SDS011;14307;51.718;8.938;2024-01-07T02:57:56;45.67;;;27.42;;
26690;SDS011;14307;51.718;8.938;2024-01-07T03:00:23;48.88;;;24.88;;
26690;SDS011;14307;51.718;8.938;2024-01-07T03:02:50;60.50;;;29.77;;
26690;SDS011;14307;51.718;8.938;2024-01-07T03:05:16;56.08;;;27.25;;
26690;SDS011;14307;51.718;8.938;2024-01-07T03:07:50;63.45;;;30.83;;
26690;SDS011;14307;51.718;8.938;2024-01-07T03:10:31;56.05;;;28.35;;
26690;SDS011;14307;51.718;8.938;2024-01-07T03:12:59;48.17;;;26.40;;
26690;SDS011;14307;51.718;8.938;2024-01-07T03:15:29;61.58;;;28.75;;
26690;SDS011;14307;51.718;8.938;2024-01-07T03:17:57;54.03;;;27.17;;
26690;SDS011;14307;51.718;8.938;2024-01-07T03:20:24;61.38;;;29.85;;
26690;SDS011;14307;51.718;8.938;2024-01-07T03:22:50;47.03;;;23.67;;
26690;SDS011;14307;51.718;8.938;2024-01-07T03:25:17;61.40;;;27.80;;
26690;SDS011;14307;51.718;8.938;2024-01-07T03:27:44;74.80;;;31.63;;
26690;SDS011;14307;51.718;8.938;2024-01-07T03:30:11;56.20;;;24.95;;
26690;SDS011;14307;51.718;8.938;2024-01-07T03:32:37;48.63;;;20.48;;
26690;SDS011;14307;51.718;8.938;2024-01-07T03:35:04;47.33;;;24.63;;
26690;SDS011;14307;51.718;8.938;2024-01-07T03:37:32;64.57;;;30.67;;
26690;SDS011;14307;51.718;8.938;2024-01-07T03:39:59;86.63;;;32.22;;
26690;SDS011;14307;51.718;8.938;2024-01-07T03:42:26;61.65;;;25.23;;
26690;SDS011;14307;51.718;8.938;2024-01-07T03:44:53;46.38;;;20.88;;
26690;SDS011;14307;51.718;8.938;2024-01-07T03:47:19;60.95;;;28.75;;
26690;SDS011;14307;51.718;8.938;2024-01-07T03:49:46;81.35;;;34.13;;
26690;SDS011;14307;51.718;8.938;2024-01-07T03:52:13;66.28;;;30.80;;
26690;SDS011;14307;51.718;8.938;2024-01-07T03:54:40;74.05;;;32.33;;
26690;SDS011;14307;51.718;8.938;2024-01-07T03:57:07;72.43;;;30.80;;
26690;SDS011;14307;51.718;8.938;2024-01-07T03:59:34;52.72;;;24.65;;
26690;SDS011;14307;51.718;8.938;2024-01-07T04:02:01;77.25;;;30.98;;
26690;SDS011;14307;51.718;8.938;2024-01-07T04:04:28;56.60;;;26.98;;
26690;SDS011;14307;51.718;8.938;2024-01-07T04:06:55;80.50;;;35.53;;
26690;SDS011;14307;51.718;8.938;2024-01-07T04:09:22;82.97;;;37.30;;
26690;SDS011;14307;51.718;8.938;2024-01-07T04:11:49;82.78;;;38.40;;
26690;SDS011;14307;51.718;8.938;2024-01-07T04:14:16;51.15;;;28.52;;
26690;SDS011;14307;51.718;8.938;2024-01-07T04:16:43;74.88;;;38.70;;
26690;SDS011;14307;51.718;8.938;2024-01-07T04:19:10;58.53;;;29.10;;
26690;SDS011;14307;51.718;8.938;2024-01-07T04:21:36;64.43;;;33.42;;
26690;SDS011;14307;51.718;8.938;2024-01-07T04:24:03;53.55;;;30.55;;
26690;SDS011;14307;51.718;8.938;2024-01-07T04:26:30;55.80;;;31.45;;
26690;SDS011;14307;51.718;8.938;2024-01-07T04:28:57;59.47;;;32.65;;
26690;SDS011;14307;51.718;8.938;2024-01-07T04:31:24;59.33;;;32.38;;
26690;SDS011;14307;51.718;8.938;2024-01-07T04:33:50;59.63;;;32.10;;
26690;SDS011;14307;51.718;8.938;2024-01-07T04:36:17;45.75;;;26.27;;
26690;SDS011;14307;51.718;8.938;2024-01-07T04:38:44;36.50;;;23.77;;
26690;SDS011;14307;51.718;8.938;2024-01-07T04:41:11;44.72;;;26.30;;
26690;SDS011;14307;51.718;8.938;2024-01-07T04:43:38;41.95;;;24.25;;
26690;SDS011;14307;51.718;8.938;2024-01-07T04:46:04;49.22;;;26.75;;
26690;SDS011;14307;51.718;8.938;2024-01-07T04:48:32;45.17;;;25.25;;
26690;SDS011;14307;51.718;8.938;2024-01-07T04:50:59;41.60;;;22.52;;
26690;SDS011;14307;51.718;8.938;2024-01-07T04:53:26;36.40;;;24.25;;
26690;SDS011;14307;51.718;8.938;2024-01-07T04:55:52;39.22;;;23.38;;
26690;SDS011;14307;51.718;8.938;2024-01-07T04:58:19;36.50;;;23.38;;
26690;SDS011;14307;51.718;8.938;2024-01-07T05:00:46;28.30;;;18.92;;
26690;SDS011;14307;51.718;8.938;2024-01-07T05:03:13;38.80;;;23.20;;
26690;SDS011;14307;51.718;8.938;2024-01-07T05:05:40;34.10;;;22.67;;
26690;SDS011;14307;51.718;8.938;2024-01-07T05:08:07;19.67;;;14.43;;
26690;SDS011;14307;51.718;8.938;2024-01-07T05:10:33;24.73;;;16.83;;
26690;SDS011;14307;51.718;8.938;2024-01-07T05:13:00;23.67;;;15.27;;
26690;SDS011;14307;51.718;8.938;2024-01-07T05:15:31;33.20;;;21.70;;
26690;SDS011;14307;51.718;8.938;2024-01-07T05:17:58;30.05;;;20.30;;
26690;SDS011;14307;51.718;8.938;2024-01-07T05:20:25;21.17;;;16.75;;
26690;SDS011;14307;51.718;8.938;2024-01-07T05:22:52;17.23;;;13.55;;
26690;SDS011;14307;51.718;8.938;2024-01-07T05:25:19;27.35;;;19.33;;
26690;SDS011;14307;51.718;8.938;2024-01-07T05:27:46;27.10;;;19.27;;
26690;SDS011;14307;51.718;8.938;2024-01-07T05:30:13;26.02;;;17.13;;
26690;SDS011;14307;51.718;8.938;2024-01-07T05:32:40;24.27;;;16.98;;
26690;SDS011;14307;51.718;8.938;2024-01-07T05:35:07;29.95;;;18.40;;
26690;SDS011;14307;51.718;8.938;2024-01-07T05:37:34;34.40;;;21.55;;
26690;SDS011;14307;51.718;8.938;2024-01-07T05:40:01;38.50;;;23.30;;
26690;SDS011;14307;51.718;8.938;2024-01-07T05:42:28;40.35;;;23.40;;
26690;SDS011;14307;51.718;8.938;2024-01-07T05:44:55;40.58;;;23.63;;
26690;SDS011;14307;51.718;8.938;2024-01-07T05:47:22;32.15;;;20.17;;
26690;SDS011;14307;51.718;8.938;2024-01-07T05:49:49;46.22;;;27.98;;
26690;SDS011;14307;51.718;8.938;2024-01-07T05:52:18;32.75;;;19.50;;
26690;SDS011;14307;51.718;8.938;2024-01-07T05:54:45;45.83;;;27.83;;
26690;SDS011;14307;51.718;8.938;2024-01-07T05:57:12;48.75;;;31.05;;
26690;SDS011;14307;51.718;8.938;2024-01-07T05:59:39;50.20;;;28.75;;
26690;SDS011;14307;51.718;8.938;2024-01-07T06:02:06;50.65;;;28.15;;
26690;SDS011;14307;51.718;8.938;2024-01-07T06:04:33;43.03;;;27.27;;
26690;SDS011;14307;51.718;8.938;2024-01-07T06:06:59;40.78;;;25.73;;
26690;SDS011;14307;51.718;8.938;2024-01-07T06:09:27;34.28;;;21.70;;
26690;SDS011;14307;51.718;8.938;2024-01-07T06:11:54;42.75;;;28.13;;
26690;SDS011;14307;51.718;8.938;2024-01-07T06:14:24;32.28;;;20.38;;
26690;SDS011;14307;51.718;8.938;2024-01-07T06:16:51;36.10;;;25.55;;
26690;SDS011;14307;51.718;8.938;2024-01-07T06:19:18;45.58;;;28.48;;
26690;SDS011;14307;51.718;8.938;2024-01-07T06:21:46;43.78;;;29.52;;
26690;SDS011;14307;51.718;8.938;2024-01-07T06:24:13;42.53;;;29.85;;
26690;SDS011;14307;51.718;8.938;2024-01-07T06:26:39;35.67;;;22.10;;
26690;SDS011;14307;51.718;8.938;2024-01-07T06:29:07;50.50;;;30.52;;
26690;SDS011;14307;51.718;8.938;2024-01-07T06:31:35;31.75;;;21.20;;
26690;SDS011;14307;51.718;8.938;2024-01-07T06:34:02;38.10;;;26.90;;
26690;SDS011;14307;51.718;8.938;2024-01-07T06:36:29;42.60;;;27.38;;
26690;SDS011;14307;51.718;8.938;2024-01-07T06:38:56;48.35;;;27.98;;
26690;SDS011;14307;51.718;8.938;2024-01-07T06:41:23;30.77;;;19.15;;
26690;SDS011;14307;51.718;8.938;2024-01-07T06:43:50;43.50;;;27.95;;
26690;SDS011;14307;51.718;8.938;2024-01-07T06:46:20;33.08;;;23.17;;
26690;SDS011;14307;51.718;8.938;2024-01-07T06:48:47;36.97;;;24.73;;
26690;SDS011;14307;51.718;8.938;2024-01-07T06:51:17;36.53;;;26.10;;
26690;SDS011;14307;51.718;8.938;2024-01-07T06:53:44;34.60;;;24.60;;
26690;SDS011;14307;51.718;8.938;2024-01-07T06:56:11;39.30;;;22.27;;
26690;SDS011;14307;51.718;8.938;2024-01-07T06:58:37;38.00;;;27.48;;
26690;SDS011;14307;51.718;8.938;2024-01-07T07:01:06;35.55;;;27.48;;
26690;SDS011;14307;51.718;8.938;2024-01-07T07:03:33;35.53;;;26.55;;
26690;SDS011;14307;51.718;8.938;2024-01-07T07:06:00;37.35;;;27.88;;
26690;SDS011;14307;51.718;8.938;2024-01-07T07:08:27;37.17;;;26.98;;
26690;SDS011;14307;51.718;8.938;2024-01-07T07:10:54;32.03;;;23.52;;
26690;SDS011;14307;51.718;8.938;2024-01-07T07:13:20;40.08;;;25.48;;
26690;SDS011;14307;51.718;8.938;2024-01-07T07:15:47;37.50;;;24.80;;
26690;SDS011;14307;51.718;8.938;2024-01-07T07:18:14;35.03;;;25.83;;
26690;SDS011;14307;51.718;8.938;2024-01-07T07:20:41;36.85;;;26.77;;
26690;SDS011;14307;51.718;8.938;2024-01-07T07:23:07;34.58;;;25.65;;
26690;SDS011;14307;51.718;8.938;2024-01-07T07:25:37;36.83;;;26.70;;
26690;SDS011;14307;51.718;8.938;2024-01-07T07:28:05;25.83;;;21.30;;
26690;SDS011;14307;51.718;8.938;2024-01-07T07:30:32;34.22;;;27.27;;
26690;SDS011;14307;51.718;8.938;2024-01-07T07:32:59;32.20;;;25.67;;
26690;SDS011;14307;51.718;8.938;2024-01-07T07:35:26;29.95;;;24.02;;
26690;SDS011;14307;51.718;8.938;2024-01-07T07:37:53;29.15;;;23.08;;
26690;SDS011;14307;51.718;8.938;2024-01-07T07:40:20;33.55;;;24.40;;
26690;SDS011;14307;51.718;8.938;2024-01-07T07:42:46;34.95;;;26.17;;
26690;SDS011;14307;51.718;8.938;2024-01-07T07:45:13;32.95;;;24.15;;
26690;SDS011;14307;51.718;8.938;2024-01-07T07:47:40;36.30;;;24.85;;
26690;SDS011;14307;51.718;8.938;2024-01-07T07:50:11;32.83;;;23.48;;
26690;SDS011;14307;51.718;8.938;2024-01-07T07:52:38;33.40;;;23.27;;
26690;SDS011;14307;51.718;8.938;2024-01-07T07:55:04;32.88;;;24.67;;
26690;SDS011;14307;51.718;8.938;2024-01-07T07:57:33;32.63;;;25.10;;
26690;SDS011;14307;51.718;8.938;2024-01-07T08:00:00;28.42;;;25.15;;
26690;SDS011;14307;51.718;8.938;2024-01-07T08:02:30;28.52;;;24.55;;
26690;SDS011;14307;51.718;8.938;2024-01-07T08:04:57;25.48;;;22.42;;
26690;SDS011;14307;51.718;8.938;2024-01-07T08:07:24;27.77;;;24.90;;
26690;SDS011;14307;51.718;8.938;2024-01-07T08:09:51;32.35;;;25.58;;
26690;SDS011;14307;51.718;8.938;2024-01-07T08:12:19;29.15;;;23.50;;
26690;SDS011;14307;51.718;8.938;2024-01-07T08:14:46;25.75;;;23.00;;
26690;SDS011;14307;51.718;8.938;2024-01-07T08:17:13;27.38;;;24.73;;
26690;SDS011;14307;51.718;8.938;2024-01-07T08:19:40;26.42;;;23.90;;
26690;SDS011;14307;51.718;8.938;2024-01-07T08:22:07;31.92;;;23.90;;
26690;SDS011;14307;51.718;8.938;2024-01-07T08:24:35;26.35;;;23.80;;
26690;SDS011;14307;51.718;8.938;2024-01-07T08:27:02;25.60;;;22.95;;
26690;SDS011;14307;51.718;8.938;2024-01-07T08:29:30;25.33;;;22.60;;
26690;SDS011;14307;51.718;8.938;2024-01-07T08:31:57;23.55;;;21.52;;
26690;SDS011;14307;51.718;8.938;2024-01-07T08:34:23;24.10;;;21.92;;
26690;SDS011;14307;51.718;8.938;2024-01-07T08:36:51;22.33;;;20.20;;
26690;SDS011;14307;51.718;8.938;2024-01-07T08:39:20;24.98;;;23.13;;
26690;SDS011;14307;51.718;8.938;2024-01-07T08:41:49;23.85;;;22.10;;
26690;SDS011;14307;51.718;8.938;2024-01-07T08:44:17;22.80;;;21.10;;
26690;SDS011;14307;51.718;8.938;2024-01-07T08:46:44;26.10;;;23.80;;
26690;SDS011;14307;51.718;8.938;2024-01-07T08:49:12;26.23;;;24.02;;
26690;SDS011;14307;51.718;8.938;2024-01-07T08:51:40;29.88;;;27.40;;
26690;SDS011;14307;51.718;8.938;2024-01-07T08:54:06;23.90;;;22.00;;
26690;SDS011;14307;51.718;8.938;2024-01-07T08:56:33;22.85;;;20.85;;
26690;SDS011;14307;51.718;8.938;2024-01-07T08:59:00;18.95;;;17.52;;
26690;SDS011;14307;51.718;8.938;2024-01-07T09:01:27;23.75;;;21.13;;
26690;SDS011;14307;51.718;8.938;2024-01-07T09:03:54;21.48;;;19.77;;
26690;SDS011;14307;51.718;8.938;2024-01-07T09:06:21;18.67;;;17.33;;
26690;SDS011;14307;51.718;8.938;2024-01-07T09:08:48;21.38;;;19.38;;
26690;SDS011;14307;51.718;8.938;2024-01-07T09:11:18;21.35;;;19.63;;
26690;SDS011;14307;51.718;8.938;2024-01-07T09:13:45;19.38;;;17.67;;
26690;SDS011;14307;51.718;8.938;2024-01-07T09:16:14;21.20;;;19.05;;
26690;SDS011;14307;51.718;8.938;2024-01-07T09:18:41;19.80;;;18.20;;
26690;SDS011;14307;51.718;8.938;2024-01-07T09:21:10;19.45;;;17.85;;
26690;SDS011;14307;51.718;8.938;2024-01-07T09:23:38;18.38;;;17.17;;
26690;SDS011;14307;51.718;8.938;2024-01-07T09:26:05;21.67;;;20.02;;
26690;SDS011;14307;51.718;8.938;2024-01-07T09:28:32;20.98;;;19.08;;
26690;SDS011;14307;51.718;8.938;2024-01-07T09:30:59;21.83;;;20.23;;
26690;SDS011;14307;51.718;8.938;2024-01-07T09:33:26;22.70;;;20.60;;
26690;SDS011;14307;51.718;8.938;2024-01-07T09:35:53;20.73;;;19.17;;
26690;SDS011;14307;51.718;8.938;2024-01-07T09:38:35;22.33;;;20.23;;
26690;SDS011;14307;51.718;8.938;2024-01-07T09:41:02;22.20;;;20.60;;
26690;SDS011;14307;51.718;8.938;2024-01-07T09:43:29;23.13;;;21.10;;
26690;SDS011;14307;51.718;8.938;2024-01-07T09:46:01;21.80;;;20.17;;
26690;SDS011;14307;51.718;8.938;2024-01-07T09:48:29;24.25;;;22.08;;
26690;SDS011;14307;51.718;8.938;2024-01-07T09:50:57;24.98;;;22.98;;
26690;SDS011;14307;51.718;8.938;2024-01-07T09:53:25;30.05;;;27.05;;
26690;SDS011;14307;51.718;8.938;2024-01-07T09:56:01;30.70;;;27.70;;
26690;SDS011;14307;51.718;8.938;2024-01-07T09:58:49;22.27;;;20.67;;
26690;SDS011;14307;51.718;8.938;2024-01-07T10:01:19;61.30;;;53.75;;
26690;SDS011;14307;51.718;8.938;2024-01-07T10:03:46;22.55;;;20.75;;
26690;SDS011;14307;51.718;8.938;2024-01-07T10:06:17;28.02;;;26.42;;
26690;SDS011;14307;51.718;8.938;2024-01-07T10:08:46;28.92;;;27.23;;
26690;SDS011;14307;51.718;8.938;2024-01-07T10:11:16;27.70;;;26.05;;
26690;SDS011;14307;51.718;8.938;2024-01-07T10:13:45;28.92;;;27.23;;
26690;SDS011;14307;51.718;8.938;2024-01-07T10:16:13;28.35;;;26.75;;
26690;SDS011;14307;51.718;8.938;2024-01-07T10:18:40;28.60;;;26.85;;
26690;SDS011;14307;51.718;8.938;2024-01-07T10:21:08;31.08;;;29.08;;
26690;SDS011;14307;51.718;8.938;2024-01-07T10:23:35;33.50;;;31.42;;
26690;SDS011;14307;51.718;8.938;2024-01-07T10:26:01;33.05;;;30.83;;
26690;SDS011;14307;51.718;8.938;2024-01-07T10:28:45;28.40;;;26.60;;
26690;SDS011;14307;51.718;8.938;2024-01-07T10:31:11;29.50;;;27.88;;
26690;SDS011;14307;51.718;8.938;2024-01-07T10:33:40;29.90;;;27.92;;
26690;SDS011;14307;51.718;8.938;2024-01-07T10:36:07;28.73;;;27.13;;
26690;SDS011;14307;51.718;8.938;2024-01-07T10:38:35;28.83;;;27.02;;
26690;SDS011;14307;51.718;8.938;2024-01-07T10:41:02;28.77;;;26.77;;
26690;SDS011;14307;51.718;8.938;2024-01-07T10:43:33;30.15;;;28.35;;
26690;SDS011;14307;51.718;8.938;2024-01-07T10:46:04;38.47;;;35.13;;
26690;SDS011;14307;51.718;8.938;2024-01-07T10:48:32;31.92;;;29.58;;
26690;SDS011;14307;51.718;8.938;2024-01-07T10:51:04;26.40;;;24.75;;
26690;SDS011;14307;51.718;8.938;2024-01-07T10:53:34;28.25;;;26.50;;
26690;SDS011;14307;51.718;8.938;2024-01-07T10:56:07;27.83;;;26.33;;
26690;SDS011;14307;51.718;8.938;2024-01-07T10:58:39;29.58;;;27.80;;
26690;SDS011;14307;51.718;8.938;2024-01-07T11:01:07;29.40;;;27.35;;
26690;SDS011;14307;51.718;8.938;2024-01-07T11:03:37;29.80;;;28.10;;
26690;SDS011;14307;51.718;8.938;2024-01-07T11:06:14;28.85;;;27.17;;
26690;SDS011;14307;51.718;8.938;2024-01-07T11:08:52;30.77;;;28.70;;
26690;SDS011;14307;51.718;8.938;2024-01-07T11:11:31;26.63;;;25.23;;
26690;SDS011;14307;51.718;8.938;2024-01-07T11:14:02;37.17;;;34.25;;
26690;SDS011;14307;51.718;8.938;2024-01-07T11:16:41;28.80;;;27.10;;
26690;SDS011;14307;51.718;8.938;2024-01-07T11:19:12;28.60;;;26.90;;
26690;SDS011;14307;51.718;8.938;2024-01-07T11:21:40;29.17;;;27.58;;
26690;SDS011;14307;51.718;8.938;2024-01-07T11:24:07;30.38;;;28.67;;
26690;SDS011;14307;51.718;8.938;2024-01-07T11:26:34;28.92;;;27.42;;
26690;SDS011;14307;51.718;8.938;2024-01-07T11:29:00;29.27;;;27.58;;
26690;SDS011;14307;51.718;8.938;2024-01-07T11:34:06;104.78;;;72.47;;
26690;SDS011;14307;51.718;8.938;2024-01-07T11:36:37;31.35;;;29.55;;
26690;SDS011;14307;51.718;8.938;2024-01-07T11:39:05;28.77;;;27.27;;
26690;SDS011;14307;51.718;8.938;2024-01-07T11:41:36;29.50;;;28.05;;
26690;SDS011;14307;51.718;8.938;2024-01-07T11:44:03;38.90;;;35.95;;
26690;SDS011;14307;51.718;8.938;2024-01-07T11:46:32;30.60;;;28.95;;
26690;SDS011;14307;51.718;8.938;2024-01-07T11:49:01;31.45;;;29.55;;
26690;SDS011;14307;51.718;8.938;2024-01-07T11:51:29;32.90;;;30.98;;
26690;SDS011;14307;51.718;8.938;2024-01-07T11:53:58;31.42;;;29.75;;
26690;SDS011;14307;51.718;8.938;2024-01-07T11:56:25;36.30;;;34.28;;
26690;SDS011;14307;51.718;8.938;2024-01-07T11:58:52;33.85;;;32.03;;
26690;SDS011;14307;51.718;8.938;2024-01-07T12:01:19;33.90;;;31.67;;
26690;SDS011;14307;51.718;8.938;2024-01-07T12:03:47;32.35;;;30.48;;
26690;SDS011;14307;51.718;8.938;2024-01-07T12:06:14;35.85;;;33.45;;
26690;SDS011;14307;51.718;8.938;2024-01-07T12:08:45;38.35;;;35.70;;
26690;SDS011;14307;51.718;8.938;2024-01-07T12:11:12;31.42;;;29.33;;
26690;SDS011;14307;51.718;8.938;2024-01-07T12:13:40;31.80;;;29.85;;
26690;SDS011;14307;51.718;8.938;2024-01-07T12:16:08;34.80;;;32.30;;
26690;SDS011;14307;51.718;8.938;2024-01-07T12:18:37;40.88;;;36.75;;
26690;SDS011;14307;51.718;8.938;2024-01-07T12:21:04;29.98;;;28.27;;
26690;SDS011;14307;51.718;8.938;2024-01-07T12:23:35;31.52;;;29.77;;
26690;SDS011;14307;51.718;8.938;2024-01-07T12:26:09;210.55;;;108.82;;
26690;SDS011;14307;51.718;8.938;2024-01-07T12:28:37;30.48;;;28.58;;
26690;SDS011;14307;51.718;8.938;2024-01-07T12:31:05;37.40;;;34.42;;
26690;SDS011;14307;51.718;8.938;2024-01-07T12:33:34;31.05;;;29.25;;
26690;SDS011;14307;51.718;8.938;2024-01-07T12:36:05;32.58;;;30.48;;
26690;SDS011;14307;51.718;8.938;2024-01-07T12:38:33;22.95;;;21.38;;
26690;SDS011;14307;51.718;8.938;2024-01-07T12:41:04;21.77;;;20.13;;
26690;SDS011;14307;51.718;8.938;2024-01-07T12:43:32;24.02;;;22.25;;
26690;SDS011;14307;51.718;8.938;2024-01-07T12:45:59;20.23;;;18.88;;
26690;SDS011;14307;51.718;8.938;2024-01-07T12:48:31;21.55;;;20.05;;
26690;SDS011;14307;51.718;8.938;2024-01-07T12:50:59;23.13;;;21.45;;
26690;SDS011;14307;51.718;8.938;2024-01-07T12:53:26;27.58;;;25.15;;
26690;SDS011;14307;51.718;8.938;2024-01-07T12:55:53;22.38;;;20.70;;
26690;SDS011;14307;51.718;8.938;2024-01-07T12:58:20;28.65;;;26.73;;
26690;SDS011;14307;51.718;8.938;2024-01-07T13:00:48;30.33;;;28.23;;
26690;SDS011;14307;51.718;8.938;2024-01-07T13:03:15;23.90;;;21.98;;
26690;SDS011;14307;51.718;8.938;2024-01-07T13:05:45;31.92;;;29.40;;
26690;SDS011;14307;51.718;8.938;2024-01-07T13:08:12;24.52;;;22.42;;
26690;SDS011;14307;51.718;8.938;2024-01-07T13:10:39;23.10;;;21.40;;
26690;SDS011;14307;51.718;8.938;2024-01-07T13:13:07;30.27;;;28.15;;
26690;SDS011;14307;51.718;8.938;2024-01-07T13:15:41;31.17;;;29.10;;
26690;SDS011;14307;51.718;8.938;2024-01-07T13:18:09;34.15;;;31.63;;
26690;SDS011;14307;51.718;8.938;2024-01-07T13:20:39;31.05;;;28.95;;
26690;SDS011;14307;51.718;8.938;2024-01-07T13:23:06;30.95;;;28.80;;
26690;SDS011;14307;51.718;8.938;2024-01-07T13:25:32;32.67;;;30.27;;
26690;SDS011;14307;51.718;8.938;2024-01-07T13:27:59;30.45;;;28.33;;
26690;SDS011;14307;51.718;8.938;2024-01-07T13:30:26;33.10;;;30.42;;
26690;SDS011;14307;51.718;8.938;2024-01-07T13:32:53;31.70;;;29.42;;
26690;SDS011;14307;51.718;8.938;2024-01-07T13:35:23;28.77;;;26.42;;
26690;SDS011;14307;51.718;8.938;2024-01-07T13:37:51;30.98;;;28.75;;
26690;SDS011;14307;51.718;8.938;2024-01-07T13:40:18;29.90;;;27.75;;
26690;SDS011;14307;51.718;8.938;2024-01-07T13:42:45;34.58;;;31.52;;
26690;SDS011;14307;51.718;8.938;2024-01-07T13:45:17;28.83;;;26.75;;
26690;SDS011;14307;51.718;8.938;2024-01-07T13:47:46;32.10;;;29.65;;
26690;SDS011;14307;51.718;8.938;2024-01-07T13:50:14;26.90;;;24.80;;
26690;SDS011;14307;51.718;8.938;2024-01-07T13:52:41;23.23;;;21.40;;
26690;SDS011;14307;51.718;8.938;2024-01-07T13:55:08;37.75;;;31.52;;
26690;SDS011;14307;51.718;8.938;2024-01-07T13:57:39;28.15;;;25.42;;
26690;SDS011;14307;51.718;8.938;2024-01-07T14:00:08;27.45;;;25.17;;
26690;SDS011;14307;51.718;8.938;2024-01-07T14:02:36;25.85;;;23.45;;
26690;SDS011;14307;51.718;8.938;2024-01-07T14:05:04;25.13;;;22.83;;
26690;SDS011;14307;51.718;8.938;2024-01-07T14:07:33;23.23;;;21.63;;
26690;SDS011;14307;51.718;8.938;2024-01-07T14:10:00;24.13;;;22.08;;
26690;SDS011;14307;51.718;8.938;2024-01-07T14:12:29;26.65;;;24.25;;
26690;SDS011;14307;51.718;8.938;2024-01-07T14:14:56;49.90;;;33.47;;
26690;SDS011;14307;51.718;8.938;2024-01-07T14:17:23;26.42;;;24.08;;
26690;SDS011;14307;51.718;8.938;2024-01-07T14:19:50;155.50;;;68.78;;
26690;SDS011;14307;51.718;8.938;2024-01-07T14:22:19;22.98;;;21.38;;
26690;SDS011;14307;51.718;8.938;2024-01-07T14:24:47;42.08;;;31.83;;
26690;SDS011;14307;51.718;8.938;2024-01-07T14:27:17;23.75;;;21.85;;